This is the latest recevied weather packets stored in our database for station/object W4NRG-1. If no packets are shown the sender has not sent any weather packets the latest 1 day(s).
| Time | Temp. | Humidity | Pressure | Rain* | Wind** | Luminosity | Snow |
|---|---|---|---|---|---|---|---|
| 1778099803 | 20.56° C | 78% | 1009.9 hPa | 0 mm | - | - | - |
| 1778099198 | 20° C | 78% | 1009.9 hPa | 0 mm | - | - | - |
| 1778095255 | 20° C | 78% | 1010.4 hPa | 0 mm | - | - | - |
| 1778094345 | 20.56° C | 78% | 1010.7 hPa | 0 mm | - | - | - |
| 1778094042 | 20.56° C | 78% | 1010.6 hPa | 0 mm | - | - | - |
| 1778092223 | 20° C | 78% | 1011.4 hPa | 0 mm | - | - | - |
| 1778091315 | 20° C | 80% | 1011.2 hPa | 0 mm | - | - | - |
| 1778091012 | 20° C | 80% | 1011.2 hPa | 0 mm | - | - | - |
| 1778090405 | 19.44° C | 81% | 1011.1 hPa | 0 mm | - | - | - |
| 1778088890 | 18.89° C | 85% | 1011.7 hPa | 0 mm | - | - | - |
| 1778087678 | 18.33° C | 88% | 1011.6 hPa | 0 mm | - | - | - |
| 1778086469 | 17.78° C | 89% | 1011.9 hPa | 0 mm | - | - | - |
| 1778084949 | 17.22° C | 91% | 1011.7 hPa | 0 mm | - | - | - |
| 1778083436 | 16.67° C | 90% | 1012.2 hPa | 3.56 mm | - | - | - |
| 1778080498 | 17.78° C | 83% | 1012.9 hPa | 1.27 mm | - | - | - |
| 1778080195 | 17.78° C | 82% | 1012.8 hPa | 0 mm | - | - | - |
| 1778079588 | 18.33° C | 82% | 1012.9 hPa | 0 mm | - | - | - |
| 1778079284 | 18.33° C | 84% | 1012.9 hPa | 0 mm | - | - | - |
| 1778078982 | 18.33° C | 84% | 1012.8 hPa | 0 mm | - | - | - |
| 1778077772 | 17.78° C | 83% | 1012.7 hPa | 1.27 mm | - | - | - |
| 1778076865 | 18.33° C | 78% | 1012.4 hPa | 1.78 mm | - | - | - |
| 1778075654 | 19.44° C | 69% | 1012.8 hPa | 0 mm | - | - | - |
| 1778074440 | 19.44° C | 69% | 1013.1 hPa | 0 mm | - | - | - |
| 1778073532 | 19.44° C | 68% | 1012.9 hPa | 0 mm | - | - | - |
| 1778073228 | 19.44° C | 68% | 1012.5 hPa | 0 mm | - | - | - |
* Rain latest hour (hover to see other rain measurements)
** Current wind speed in m/s (hover to see current wind gust speed)